sensor_id;sensor_type;location;lat;lon;timestamp;pressure;altitude;pressure_sealevel;temperature;humidity
9423;BME280;65863;49.506;10.400;2023-11-18T00:01:16;98853.69;;;3.65;100.00
9423;BME280;65863;49.506;10.400;2023-11-18T00:04:01;98834.72;;;3.63;100.00
9423;BME280;65863;49.506;10.400;2023-11-18T00:06:45;98842.34;;;3.89;100.00
9423;BME280;65863;49.506;10.400;2023-11-18T00:09:29;98831.59;;;3.76;99.67
9423;BME280;65863;49.506;10.400;2023-11-18T00:12:13;98872.19;;;4.14;99.07
9423;BME280;65863;49.506;10.400;2023-11-18T00:14:58;98843.59;;;3.88;98.33
9423;BME280;65863;49.506;10.400;2023-11-18T00:17:42;98835.00;;;3.86;98.28
9423;BME280;65863;49.506;10.400;2023-11-18T00:20:26;98848.53;;;3.78;98.34
9423;BME280;65863;49.506;10.400;2023-11-18T00:23:10;98857.50;;;3.88;98.23
9423;BME280;65863;49.506;10.400;2023-11-18T00:25:55;98859.38;;;3.76;98.22
9423;BME280;65863;49.506;10.400;2023-11-18T00:28:39;98863.47;;;3.81;98.27
9423;BME280;65863;49.506;10.400;2023-11-18T00:31:23;98872.91;;;3.89;98.49
9423;BME280;65863;49.506;10.400;2023-11-18T00:34:09;98863.19;;;3.78;98.66
9423;BME280;65863;49.506;10.400;2023-11-18T00:36:58;98756.19;;;3.01;99.60
9423;BME280;65863;49.506;10.400;2023-11-18T00:39:42;98863.81;;;3.68;99.87
9423;BME280;65863;49.506;10.400;2023-11-18T00:42:26;98865.13;;;3.72;99.39
9423;BME280;65863;49.506;10.400;2023-11-18T00:45:10;98873.13;;;3.85;99.56
9423;BME280;65863;49.506;10.400;2023-11-18T00:47:56;98863.97;;;3.79;99.47
9423;BME280;65863;49.506;10.400;2023-11-18T00:50:40;98852.97;;;3.70;99.58
9423;BME280;65863;49.506;10.400;2023-11-18T00:53:24;98872.91;;;3.89;99.32
9423;BME280;65863;49.506;10.400;2023-11-18T00:56:13;98869.28;;;3.83;99.73
9423;BME280;65863;49.506;10.400;2023-11-18T00:59:00;98877.00;;;3.93;99.46
9423;BME280;65863;49.506;10.400;2023-11-18T01:01:45;98877.22;;;3.90;98.79
9423;BME280;65863;49.506;10.400;2023-11-18T01:04:29;98863.31;;;3.69;98.94
9423;BME280;65863;49.506;10.400;2023-11-18T01:07:19;98853.53;;;3.53;99.61
9423;BME280;65863;49.506;10.400;2023-11-18T01:10:04;98820.94;;;3.13;100.00
9423;BME280;65863;49.506;10.400;2023-11-18T01:12:49;98858.06;;;3.00;100.00
9423;BME280;65863;49.506;10.400;2023-11-18T01:15:33;98888.28;;;3.13;100.00
9423;BME280;65863;49.506;10.400;2023-11-18T01:18:18;98895.00;;;3.06;100.00
9423;BME280;65863;49.506;10.400;2023-11-18T01:21:02;98860.00;;;2.64;100.00
9423;BME280;65863;49.506;10.400;2023-11-18T01:23:46;98886.31;;;2.84;100.00
9423;BME280;65863;49.506;10.400;2023-11-18T01:26:31;98893.09;;;2.83;100.00
9423;BME280;65863;49.506;10.400;2023-11-18T01:29:35;98894.63;;;2.54;100.00
9423;BME280;65863;49.506;10.400;2023-11-18T01:32:25;98902.72;;;2.57;100.00
9423;BME280;65863;49.506;10.400;2023-11-18T01:35:09;98912.78;;;2.70;100.00
9423;BME280;65863;49.506;10.400;2023-11-18T01:37:56;98784.84;;;1.87;100.00
9423;BME280;65863;49.506;10.400;2023-11-18T01:40:41;98892.03;;;2.35;100.00
9423;BME280;65863;49.506;10.400;2023-11-18T01:43:25;98897.63;;;2.26;100.00
9423;BME280;65863;49.506;10.400;2023-11-18T01:46:09;98867.09;;;1.96;100.00
9423;BME280;65863;49.506;10.400;2023-11-18T01:48:54;98902.38;;;2.11;100.00
9423;BME280;65863;49.506;10.400;2023-11-18T01:51:38;98882.75;;;1.99;100.00
9423;BME280;65863;49.506;10.400;2023-11-18T01:54:22;98916.06;;;1.90;100.00
9423;BME280;65863;49.506;10.400;2023-11-18T01:57:08;98895.56;;;1.72;100.00
9423;BME280;65863;49.506;10.400;2023-11-18T02:00:12;98905.84;;;1.48;100.00
9423;BME280;65863;49.506;10.400;2023-11-18T02:03:02;98882.00;;;1.17;100.00
9423;BME280;65863;49.506;10.400;2023-11-18T02:05:48;98882.03;;;1.08;100.00
9423;BME280;65863;49.506;10.400;2023-11-18T02:08:33;98887.94;;;0.91;100.00
9423;BME280;65863;49.506;10.400;2023-11-18T02:11:32;98885.31;;;0.97;100.00
9423;BME280;65863;49.506;10.400;2023-11-18T02:14:20;98860.00;;;0.89;100.00
9423;BME280;65863;49.506;10.400;2023-11-18T02:17:05;98912.31;;;1.02;100.00
9423;BME280;65863;49.506;10.400;2023-11-18T02:19:51;98900.50;;;1.01;100.00
9423;BME280;65863;49.506;10.400;2023-11-18T02:22:36;98914.94;;;0.96;100.00
9423;BME280;65863;49.506;10.400;2023-11-18T02:25:21;98879.53;;;0.76;100.00
9423;BME280;65863;49.506;10.400;2023-11-18T02:28:08;98875.53;;;0.77;100.00
9423;BME280;65863;49.506;10.400;2023-11-18T02:30:58;98812.25;;;0.37;100.00
9423;BME280;65863;49.506;10.400;2023-11-18T02:33:55;98888.63;;;0.77;100.00
9423;BME280;65863;49.506;10.400;2023-11-18T02:36:46;98909.31;;;0.81;100.00
9423;BME280;65863;49.506;10.400;2023-11-18T02:39:41;98904.91;;;0.65;100.00
9423;BME280;65863;49.506;10.400;2023-11-18T02:42:27;98914.75;;;0.57;100.00
9423;BME280;65863;49.506;10.400;2023-11-18T02:45:13;98918.88;;;0.62;100.00
9423;BME280;65863;49.506;10.400;2023-11-18T02:48:00;98904.00;;;0.41;100.00
9423;BME280;65863;49.506;10.400;2023-11-18T02:50:44;98936.88;;;0.39;100.00
9423;BME280;65863;49.506;10.400;2023-11-18T02:53:28;98931.03;;;0.37;100.00
9423;BME280;65863;49.506;10.400;2023-11-18T02:56:12;98928.91;;;0.31;100.00
9423;BME280;65863;49.506;10.400;2023-11-18T02:58:56;98913.69;;;0.17;100.00
9423;BME280;65863;49.506;10.400;2023-11-18T03:01:40;98923.97;;;0.17;100.00
9423;BME280;65863;49.506;10.400;2023-11-18T03:04:24;98941.44;;;0.51;100.00
9423;BME280;65863;49.506;10.400;2023-11-18T03:07:08;98948.84;;;0.26;100.00
9423;BME280;65863;49.506;10.400;2023-11-18T03:09:53;98940.84;;;0.10;100.00
9423;BME280;65863;49.506;10.400;2023-11-18T03:12:41;98931.34;;;0.11;100.00
9423;BME280;65863;49.506;10.400;2023-11-18T03:15:25;98944.53;;;-0.03;100.00
9423;BME280;65863;49.506;10.400;2023-11-18T03:18:09;98945.75;;;-0.04;100.00
9423;BME280;65863;49.506;10.400;2023-11-18T03:20:53;98918.41;;;-0.20;100.00
9423;BME280;65863;49.506;10.400;2023-11-18T03:23:38;98918.72;;;-0.18;100.00
9423;BME280;65863;49.506;10.400;2023-11-18T03:26:24;98929.59;;;-0.24;100.00
9423;BME280;65863;49.506;10.400;2023-11-18T03:29:09;98919.63;;;-0.30;100.00
9423;BME280;65863;49.506;10.400;2023-11-18T03:32:13;98893.25;;;-0.41;100.00
9423;BME280;65863;49.506;10.400;2023-11-18T03:34:58;98864.69;;;-0.56;100.00
9423;BME280;65863;49.506;10.400;2023-11-18T03:37:45;98919.50;;;-0.27;100.00
9423;BME280;65863;49.506;10.400;2023-11-18T03:40:48;98941.56;;;-0.27;100.00
9423;BME280;65863;49.506;10.400;2023-11-18T03:43:32;98944.63;;;-0.34;100.00
9423;BME280;65863;49.506;10.400;2023-11-18T03:46:35;98899.63;;;-0.62;100.00
9423;BME280;65863;49.506;10.400;2023-11-18T03:49:19;98948.44;;;-0.31;100.00
9423;BME280;65863;49.506;10.400;2023-11-18T03:52:04;98900.84;;;-0.63;100.00
9423;BME280;65863;49.506;10.400;2023-11-18T03:55:08;98937.25;;;-0.28;100.00
9423;BME280;65863;49.506;10.400;2023-11-18T03:57:52;98946.63;;;-0.25;100.00
9423;BME280;65863;49.506;10.400;2023-11-18T04:00:55;98963.66;;;-0.27;100.00
9423;BME280;65863;49.506;10.400;2023-11-18T04:03:40;98910.84;;;-0.47;100.00
9423;BME280;65863;49.506;10.400;2023-11-18T04:06:25;98920.25;;;-0.26;100.00
9423;BME280;65863;49.506;10.400;2023-11-18T04:09:09;98943.91;;;-0.07;100.00
9423;BME280;65863;49.506;10.400;2023-11-18T04:12:13;98922.72;;;-0.10;100.00
9423;BME280;65863;49.506;10.400;2023-11-18T04:14:57;98917.16;;;-0.38;100.00
9423;BME280;65863;49.506;10.400;2023-11-18T04:17:41;98929.75;;;-0.27;100.00
9423;BME280;65863;49.506;10.400;2023-11-18T04:20:44;98928.22;;;-0.28;100.00
9423;BME280;65863;49.506;10.400;2023-11-18T04:23:28;98916.56;;;-0.23;100.00
9423;BME280;65863;49.506;10.400;2023-11-18T04:26:31;98901.69;;;-0.35;100.00
9423;BME280;65863;49.506;10.400;2023-11-18T04:29:15;98942.06;;;-0.10;100.00
9423;BME280;65863;49.506;10.400;2023-11-18T04:32:18;98895.38;;;-0.45;100.00
9423;BME280;65863;49.506;10.400;2023-11-18T04:35:03;98934.66;;;-0.13;100.00
9423;BME280;65863;49.506;10.400;2023-11-18T04:38:02;98946.66;;;0.03;100.00
9423;BME280;65863;49.506;10.400;2023-11-18T04:40:47;98909.50;;;-0.33;100.00
9423;BME280;65863;49.506;10.400;2023-11-18T04:43:50;98958.19;;;0.20;100.00
9423;BME280;65863;49.506;10.400;2023-11-18T04:46:53;98944.22;;;0.32;100.00
9423;BME280;65863;49.506;10.400;2023-11-18T04:49:37;98862.47;;;-0.02;100.00
9423;BME280;65863;49.506;10.400;2023-11-18T04:52:40;98914.91;;;0.35;100.00
9423;BME280;65863;49.506;10.400;2023-11-18T04:55:24;98948.50;;;0.52;100.00
9423;BME280;65863;49.506;10.400;2023-11-18T04:58:23;98934.25;;;0.54;100.00
9423;BME280;65863;49.506;10.400;2023-11-18T05:01:08;98926.88;;;0.60;100.00
9423;BME280;65863;49.506;10.400;2023-11-18T05:03:52;98894.50;;;0.32;100.00
9423;BME280;65863;49.506;10.400;2023-11-18T05:06:36;98898.66;;;0.37;100.00
9423;BME280;65863;49.506;10.400;2023-11-18T05:09:20;98885.47;;;0.41;100.00
9423;BME280;65863;49.506;10.400;2023-11-18T05:12:04;98944.47;;;0.90;100.00
9423;BME280;65863;49.506;10.400;2023-11-18T05:14:48;98965.31;;;1.10;100.00
9423;BME280;65863;49.506;10.400;2023-11-18T05:17:37;98944.78;;;0.83;100.00
9423;BME280;65863;49.506;10.400;2023-11-18T05:20:21;98933.47;;;0.72;100.00
9423;BME280;65863;49.506;10.400;2023-11-18T05:23:06;98957.91;;;1.16;100.00
9423;BME280;65863;49.506;10.400;2023-11-18T05:25:50;98968.97;;;1.16;100.00
9423;BME280;65863;49.506;10.400;2023-11-18T05:28:33;98985.25;;;1.23;100.00
9423;BME280;65863;49.506;10.400;2023-11-18T05:31:17;98986.03;;;1.24;100.00
9423;BME280;65863;49.506;10.400;2023-11-18T05:34:01;98836.31;;;0.55;100.00
9423;BME280;65863;49.506;10.400;2023-11-18T05:36:47;98973.09;;;1.30;100.00
9423;BME280;65863;49.506;10.400;2023-11-18T05:39:35;98968.31;;;1.30;100.00
9423;BME280;65863;49.506;10.400;2023-11-18T05:42:26;98987.06;;;1.35;100.00
9423;BME280;65863;49.506;10.400;2023-11-18T05:45:10;98980.38;;;1.51;100.00
9423;BME280;65863;49.506;10.400;2023-11-18T05:48:01;98988.22;;;1.53;100.00
9423;BME280;65863;49.506;10.400;2023-11-18T05:50:46;98961.50;;;1.50;100.00
9423;BME280;65863;49.506;10.400;2023-11-18T05:53:30;98941.47;;;1.22;100.00
9423;BME280;65863;49.506;10.400;2023-11-18T05:56:33;98955.75;;;1.20;100.00
9423;BME280;65863;49.506;10.400;2023-11-18T05:59:23;98937.19;;;1.11;100.00
9423;BME280;65863;49.506;10.400;2023-11-18T06:02:07;98956.13;;;1.03;100.00
9423;BME280;65863;49.506;10.400;2023-11-18T06:04:51;98948.47;;;0.89;100.00
9423;BME280;65863;49.506;10.400;2023-11-18T06:07:36;98949.09;;;0.75;100.00
9423;BME280;65863;49.506;10.400;2023-11-18T06:10:20;98939.63;;;0.48;100.00
9423;BME280;65863;49.506;10.400;2023-11-18T06:13:05;98948.22;;;0.41;100.00
9423;BME280;65863;49.506;10.400;2023-11-18T06:15:50;98950.06;;;0.25;100.00
9423;BME280;65863;49.506;10.400;2023-11-18T06:18:35;98944.84;;;0.09;100.00
9423;BME280;65863;49.506;10.400;2023-11-18T06:21:22;98950.22;;;0.31;100.00
9423;BME280;65863;49.506;10.400;2023-11-18T06:24:12;98899.28;;;-0.05;100.00
9423;BME280;65863;49.506;10.400;2023-11-18T06:26:58;98887.44;;;-0.15;100.00
9423;BME280;65863;49.506;10.400;2023-11-18T06:29:43;98763.94;;;-0.98;100.00
9423;BME280;65863;49.506;10.400;2023-11-18T06:32:27;98875.72;;;-0.47;100.00
9423;BME280;65863;49.506;10.400;2023-11-18T06:35:11;98916.69;;;-0.36;100.00
9423;BME280;65863;49.506;10.400;2023-11-18T06:37:57;98933.19;;;0.05;100.00
9423;BME280;65863;49.506;10.400;2023-11-18T06:40:42;98958.03;;;0.14;100.00
9423;BME280;65863;49.506;10.400;2023-11-18T06:43:26;98960.19;;;0.38;100.00
9423;BME280;65863;49.506;10.400;2023-11-18T06:46:20;98926.44;;;0.15;100.00
9423;BME280;65863;49.506;10.400;2023-11-18T06:49:05;98891.75;;;0.14;100.00
9423;BME280;65863;49.506;10.400;2023-11-18T06:51:50;98951.91;;;0.65;100.00
9423;BME280;65863;49.506;10.400;2023-11-18T06:54:34;98963.53;;;0.79;100.00
9423;BME280;65863;49.506;10.400;2023-11-18T06:57:18;98932.09;;;0.58;100.00
9423;BME280;65863;49.506;10.400;2023-11-18T07:00:03;98973.94;;;1.02;100.00
9423;BME280;65863;49.506;10.400;2023-11-18T07:02:52;98952.16;;;0.86;100.00
9423;BME280;65863;49.506;10.400;2023-11-18T07:05:38;98959.31;;;1.11;100.00
9423;BME280;65863;49.506;10.400;2023-11-18T07:08:23;98960.19;;;1.27;100.00
9423;BME280;65863;49.506;10.400;2023-11-18T07:11:08;98949.75;;;1.31;100.00
9423;BME280;65863;49.506;10.400;2023-11-18T07:13:52;98879.84;;;0.78;100.00
9423;BME280;65863;49.506;10.400;2023-11-18T07:16:41;98957.91;;;1.25;100.00
9423;BME280;65863;49.506;10.400;2023-11-18T07:19:25;98965.94;;;1.57;100.00
9423;BME280;65863;49.506;10.400;2023-11-18T07:22:10;98987.81;;;1.79;100.00
9423;BME280;65863;49.506;10.400;2023-11-18T07:24:54;98983.84;;;1.70;100.00
9423;BME280;65863;49.506;10.400;2023-11-18T07:27:38;98978.19;;;1.65;100.00
9423;BME280;65863;49.506;10.400;2023-11-18T07:30:22;98993.91;;;1.92;100.00
9423;BME280;65863;49.506;10.400;2023-11-18T07:33:09;98998.56;;;2.10;100.00
9423;BME280;65863;49.506;10.400;2023-11-18T07:35:53;98970.91;;;2.01;100.00
9423;BME280;65863;49.506;10.400;2023-11-18T07:38:39;98957.19;;;2.06;100.00
9423;BME280;65863;49.506;10.400;2023-11-18T07:41:42;99006.19;;;2.64;100.00
9423;BME280;65863;49.506;10.400;2023-11-18T07:44:45;98992.13;;;2.67;100.00
9423;BME280;65863;49.506;10.400;2023-11-18T07:47:32;98990.13;;;2.68;100.00
9423;BME280;65863;49.506;10.400;2023-11-18T07:50:19;98971.13;;;2.75;100.00
9423;BME280;65863;49.506;10.400;2023-11-18T07:53:03;98974.75;;;3.12;100.00
9423;BME280;65863;49.506;10.400;2023-11-18T07:55:50;98973.59;;;3.03;100.00
9423;BME280;65863;49.506;10.400;2023-11-18T07:58:34;98985.00;;;3.20;100.00
9423;BME280;65863;49.506;10.400;2023-11-18T08:01:41;98990.56;;;3.50;100.00
9423;BME280;65863;49.506;10.400;2023-11-18T08:04:28;98976.03;;;3.10;100.00
9423;BME280;65863;49.506;10.400;2023-11-18T08:07:31;98971.63;;;3.04;100.00
9423;BME280;65863;49.506;10.400;2023-11-18T08:10:34;98961.56;;;3.06;100.00
9423;BME280;65863;49.506;10.400;2023-11-18T08:13:21;98865.53;;;2.49;100.00
9423;BME280;65863;49.506;10.400;2023-11-18T08:16:06;98981.44;;;3.50;100.00
9423;BME280;65863;49.506;10.400;2023-11-18T08:18:52;98976.00;;;3.40;99.60
9423;BME280;65863;49.506;10.400;2023-11-18T08:21:36;98973.69;;;3.54;99.68
9423;BME280;65863;49.506;10.400;2023-11-18T08:24:24;98947.06;;;3.47;99.52
9423;BME280;65863;49.506;10.400;2023-11-18T08:27:08;98966.53;;;3.32;99.88
9423;BME280;65863;49.506;10.400;2023-11-18T08:29:53;98957.91;;;3.30;100.00
9423;BME280;65863;49.506;10.400;2023-11-18T08:32:42;98951.75;;;3.56;100.00
9423;BME280;65863;49.506;10.400;2023-11-18T08:35:29;98961.94;;;3.79;99.60
9423;BME280;65863;49.506;10.400;2023-11-18T08:38:13;98941.72;;;3.43;99.80
9423;BME280;65863;49.506;10.400;2023-11-18T08:40:57;98877.88;;;3.08;99.55
9423;BME280;65863;49.506;10.400;2023-11-18T08:43:41;98920.72;;;3.57;98.58
9423;BME280;65863;49.506;10.400;2023-11-18T08:46:25;98945.97;;;3.74;98.96
9423;BME280;65863;49.506;10.400;2023-11-18T08:49:10;98977.03;;;3.93;99.78
9423;BME280;65863;49.506;10.400;2023-11-18T08:51:55;98973.91;;;3.86;100.00
9423;BME280;65863;49.506;10.400;2023-11-18T08:54:42;98971.78;;;3.81;100.00
9423;BME280;65863;49.506;10.400;2023-11-18T08:58:05;98986.56;;;4.28;100.00
9423;BME280;65863;49.506;10.400;2023-11-18T09:01:18;98974.50;;;4.31;99.30
9423;BME280;65863;49.506;10.400;2023-11-18T09:04:03;98981.00;;;4.28;99.20
9423;BME280;65863;49.506;10.400;2023-11-18T09:06:47;98930.13;;;4.22;98.97
9423;BME280;65863;49.506;10.400;2023-11-18T09:09:32;98966.88;;;4.99;97.09
9423;BME280;65863;49.506;10.400;2023-11-18T09:12:17;98939.59;;;5.09;95.58
9423;BME280;65863;49.506;10.400;2023-11-18T09:15:03;98915.19;;;4.92;95.48
9423;BME280;65863;49.506;10.400;2023-11-18T09:17:48;98942.34;;;5.35;94.41
9423;BME280;65863;49.506;10.400;2023-11-18T09:20:32;98934.50;;;5.02;95.14
9423;BME280;65863;49.506;10.400;2023-11-18T09:23:16;98958.13;;;5.12;95.76
9423;BME280;65863;49.506;10.400;2023-11-18T09:26:01;98969.41;;;5.29;95.81
9423;BME280;65863;49.506;10.400;2023-11-18T09:28:45;98949.00;;;5.11;96.20
9423;BME280;65863;49.506;10.400;2023-11-18T09:31:29;98917.66;;;5.16;95.28
9423;BME280;65863;49.506;10.400;2023-11-18T09:34:34;98928.66;;;5.69;93.82
9423;BME280;65863;49.506;10.400;2023-11-18T09:37:24;98935.75;;;5.70;92.30
9423;BME280;65863;49.506;10.400;2023-11-18T09:40:19;98946.84;;;5.59;94.20
9423;BME280;65863;49.506;10.400;2023-11-18T09:43:08;98916.22;;;5.27;93.97
9423;BME280;65863;49.506;10.400;2023-11-18T09:45:56;98862.59;;;5.32;94.63
9423;BME280;65863;49.506;10.400;2023-11-18T09:48:51;98931.75;;;6.26;91.61
9423;BME280;65863;49.506;10.400;2023-11-18T09:51:44;98931.63;;;6.92;89.77
9423;BME280;65863;49.506;10.400;2023-11-18T09:54:40;98907.28;;;7.43;87.09
9423;BME280;65863;49.506;10.400;2023-11-18T09:57:37;98924.91;;;8.02;84.45
9423;BME280;65863;49.506;10.400;2023-11-18T10:00:24;98768.69;;;7.17;84.04
9423;BME280;65863;49.506;10.400;2023-11-18T10:03:10;98889.53;;;8.16;83.17
9423;BME280;65863;49.506;10.400;2023-11-18T10:06:04;98932.47;;;8.24;83.36
9423;BME280;65863;49.506;10.400;2023-11-18T10:08:50;98932.28;;;8.11;81.70
9423;BME280;65863;49.506;10.400;2023-11-18T10:11:37;98938.09;;;8.13;81.52
9423;BME280;65863;49.506;10.400;2023-11-18T10:14:21;98935.38;;;7.90;82.08
9423;BME280;65863;49.506;10.400;2023-11-18T10:17:05;98942.22;;;7.95;83.11
9423;BME280;65863;49.506;10.400;2023-11-18T10:19:54;98933.44;;;7.46;84.67
9423;BME280;65863;49.506;10.400;2023-11-18T10:22:41;98905.00;;;7.30;85.84
9423;BME280;65863;49.506;10.400;2023-11-18T10:25:25;98920.91;;;7.86;84.69
9423;BME280;65863;49.506;10.400;2023-11-18T10:28:24;98924.28;;;8.38;83.24
9423;BME280;65863;49.506;10.400;2023-11-18T10:31:08;98895.22;;;8.52;81.51
9423;BME280;65863;49.506;10.400;2023-11-18T10:33:57;98916.94;;;8.82;80.86
9423;BME280;65863;49.506;10.400;2023-11-18T10:36:42;98901.88;;;8.49;80.41
9423;BME280;65863;49.506;10.400;2023-11-18T10:39:49;98920.72;;;8.32;83.02
9423;BME280;65863;49.506;10.400;2023-11-18T10:42:36;98929.06;;;8.43;81.90
9423;BME280;65863;49.506;10.400;2023-11-18T10:45:24;98895.31;;;8.30;81.81
9423;BME280;65863;49.506;10.400;2023-11-18T10:48:11;98903.16;;;8.37;82.30
9423;BME280;65863;49.506;10.400;2023-11-18T10:50:56;98903.59;;;7.88;83.23
9423;BME280;65863;49.506;10.400;2023-11-18T10:53:53;98899.06;;;7.79;81.99
9423;BME280;65863;49.506;10.400;2023-11-18T10:56:37;98891.50;;;7.63;82.92
9423;BME280;65863;49.506;10.400;2023-11-18T10:59:22;98897.53;;;7.78;83.70
9423;BME280;65863;49.506;10.400;2023-11-18T11:02:19;98907.25;;;7.60;81.04
9423;BME280;65863;49.506;10.400;2023-11-18T11:05:05;98896.59;;;7.58;80.43
9423;BME280;65863;49.506;10.400;2023-11-18T11:07:58;98887.72;;;7.54;78.82
9423;BME280;65863;49.506;10.400;2023-11-18T11:10:43;98876.03;;;7.56;78.68
9423;BME280;65863;49.506;10.400;2023-11-18T11:13:29;98893.53;;;7.56;78.88
9423;BME280;65863;49.506;10.400;2023-11-18T11:16:18;98873.72;;;7.60;79.10
9423;BME280;65863;49.506;10.400;2023-11-18T11:19:04;98860.28;;;7.58;78.28
9423;BME280;65863;49.506;10.400;2023-11-18T11:22:08;98867.81;;;7.75;78.86
9423;BME280;65863;49.506;10.400;2023-11-18T11:25:14;98873.38;;;7.86;78.09
9423;BME280;65863;49.506;10.400;2023-11-18T11:28:11;98870.41;;;7.67;77.60
9423;BME280;65863;49.506;10.400;2023-11-18T11:31:55;98872.38;;;7.84;77.32
9423;BME280;65863;49.506;10.400;2023-11-18T11:34:19;98879.69;;;7.98;76.61
9423;BME280;65863;49.506;10.400;2023-11-18T11:37:06;98841.22;;;7.63;76.68
9423;BME280;65863;49.506;10.400;2023-11-18T11:39:55;98855.66;;;7.67;77.27
9423;BME280;65863;49.506;10.400;2023-11-18T11:42:41;98870.28;;;8.01;78.18
9423;BME280;65863;49.506;10.400;2023-11-18T11:45:27;98867.38;;;8.24;76.52
9423;BME280;65863;49.506;10.400;2023-11-18T11:48:14;98846.53;;;8.19;74.76
9423;BME280;65863;49.506;10.400;2023-11-18T11:51:36;98845.78;;;8.19;74.94
9423;BME280;65863;49.506;10.400;2023-11-18T11:55:12;98837.69;;;8.15;75.82
9423;BME280;65863;49.506;10.400;2023-11-18T11:58:32;98834.88;;;8.15;75.18
9423;BME280;65863;49.506;10.400;2023-11-18T12:01:32;98837.66;;;8.21;76.58
9423;BME280;65863;49.506;10.400;2023-11-18T12:04:37;98830.34;;;8.01;77.13
9423;BME280;65863;49.506;10.400;2023-11-18T12:07:40;98806.28;;;7.86;76.54
9423;BME280;65863;49.506;10.400;2023-11-18T12:10:54;98818.91;;;8.04;76.74
9423;BME280;65863;49.506;10.400;2023-11-18T12:13:40;98807.25;;;8.00;76.72
9423;BME280;65863;49.506;10.400;2023-11-18T12:24:14;98773.13;;;8.07;77.20
9423;BME280;65863;49.506;10.400;2023-11-18T12:26:58;98750.09;;;7.96;77.50
9423;BME280;65863;49.506;10.400;2023-11-18T12:32:59;98774.28;;;8.23;76.47
9423;BME280;65863;49.506;10.400;2023-11-18T12:36:24;98766.94;;;8.20;77.05
9423;BME280;65863;49.506;10.400;2023-11-18T12:43:07;98747.50;;;7.98;77.32
9423;BME280;65863;49.506;10.400;2023-11-18T12:49:55;98669.75;;;7.60;77.50
9423;BME280;65863;49.506;10.400;2023-11-18T12:52:40;98736.81;;;8.02;77.39
9423;BME280;65863;49.506;10.400;2023-11-18T12:55:46;98702.84;;;7.86;77.80
9423;BME280;65863;49.506;10.400;2023-11-18T12:58:31;98691.47;;;7.79;77.06
9423;BME280;65863;49.506;10.400;2023-11-18T13:01:36;98748.91;;;8.21;75.99
9423;BME280;65863;49.506;10.400;2023-11-18T13:04:20;98714.47;;;7.96;76.28
9423;BME280;65863;49.506;10.400;2023-11-18T13:07:24;98743.63;;;8.06;74.48
9423;BME280;65863;49.506;10.400;2023-11-18T13:10:08;98740.19;;;7.89;75.57
9423;BME280;65863;49.506;10.400;2023-11-18T13:12:53;98744.69;;;8.03;76.83
9423;BME280;65863;49.506;10.400;2023-11-18T13:15:57;98728.19;;;8.00;76.27
9423;BME280;65863;49.506;10.400;2023-11-18T13:18:44;98735.63;;;7.91;76.27
9423;BME280;65863;49.506;10.400;2023-11-18T13:21:28;98719.88;;;7.88;77.17
9423;BME280;65863;49.506;10.400;2023-11-18T13:24:14;98728.81;;;7.81;78.69
9423;BME280;65863;49.506;10.400;2023-11-18T13:27:18;98718.03;;;7.55;79.50
9423;BME280;65863;49.506;10.400;2023-11-18T13:30:03;98713.63;;;7.71;79.35
9423;BME280;65863;49.506;10.400;2023-11-18T13:33:04;98701.72;;;7.65;78.70
9423;BME280;65863;49.506;10.400;2023-11-18T13:35:48;98709.28;;;7.75;78.74
9423;BME280;65863;49.506;10.400;2023-11-18T13:38:33;98704.25;;;7.68;79.99
9423;BME280;65863;49.506;10.400;2023-11-18T13:41:36;98635.13;;;7.21;80.77
9423;BME280;65863;49.506;10.400;2023-11-18T13:44:36;98682.59;;;7.74;80.59
9423;BME280;65863;49.506;10.400;2023-11-18T13:47:55;98618.69;;;7.12;81.16
9423;BME280;65863;49.506;10.400;2023-11-18T13:50:59;98647.03;;;7.33;81.13
9423;BME280;65863;49.506;10.400;2023-11-18T13:53:44;98648.75;;;7.42;81.67
9423;BME280;65863;49.506;10.400;2023-11-18T13:56:28;98669.50;;;7.52;81.70
9423;BME280;65863;49.506;10.400;2023-11-18T13:59:14;98637.06;;;7.44;81.33
9423;BME280;65863;49.506;10.400;2023-11-18T14:02:17;98663.72;;;7.45;80.88
9423;BME280;65863;49.506;10.400;2023-11-18T14:05:02;98661.09;;;7.58;81.18
9423;BME280;65863;49.506;10.400;2023-11-18T14:08:08;98661.00;;;7.33;80.51
9423;BME280;65863;49.506;10.400;2023-11-18T14:10:56;98683.31;;;7.39;80.97
9423;BME280;65863;49.506;10.400;2023-11-18T14:13:58;98612.19;;;6.87;81.21
9423;BME280;65863;49.506;10.400;2023-11-18T14:16:43;98671.69;;;7.29;80.52
9423;BME280;65863;49.506;10.400;2023-11-18T14:19:28;98676.50;;;7.29;81.73
9423;BME280;65863;49.506;10.400;2023-11-18T14:22:15;98645.38;;;7.07;81.17
9423;BME280;65863;49.506;10.400;2023-11-18T14:25:00;98667.44;;;7.11;82.39
9423;BME280;65863;49.506;10.400;2023-11-18T14:27:44;98671.47;;;7.10;81.92
9423;BME280;65863;49.506;10.400;2023-11-18T14:30:28;98663.09;;;7.10;82.72
9423;BME280;65863;49.506;10.400;2023-11-18T14:33:12;98655.50;;;7.11;83.12
9423;BME280;65863;49.506;10.400;2023-11-18T14:35:56;98649.97;;;6.99;84.14
9423;BME280;65863;49.506;10.400;2023-11-18T14:38:41;98603.91;;;6.64;84.18
9423;BME280;65863;49.506;10.400;2023-11-18T14:41:25;98626.47;;;6.72;84.31
9423;BME280;65863;49.506;10.400;2023-11-18T14:44:10;98638.56;;;6.86;84.40
9423;BME280;65863;49.506;10.400;2023-11-18T14:46:55;98614.00;;;6.73;84.41
9423;BME280;65863;49.506;10.400;2023-11-18T14:49:41;98642.88;;;6.93;84.48
9423;BME280;65863;49.506;10.400;2023-11-18T14:52:25;98611.81;;;6.49;84.99
9423;BME280;65863;49.506;10.400;2023-11-18T14:55:09;98628.78;;;6.62;85.41
9423;BME280;65863;49.506;10.400;2023-11-18T14:57:56;98631.72;;;6.87;85.03
9423;BME280;65863;49.506;10.400;2023-11-18T15:00:40;98626.91;;;6.82;85.85
9423;BME280;65863;49.506;10.400;2023-11-18T15:03:26;98609.22;;;6.74;85.27
9423;BME280;65863;49.506;10.400;2023-11-18T15:06:10;98600.38;;;6.64;85.20
9423;BME280;65863;49.506;10.400;2023-11-18T15:08:55;98595.25;;;6.79;85.08
9423;BME280;65863;49.506;10.400;2023-11-18T15:11:59;98558.31;;;6.39;85.53
9423;BME280;65863;49.506;10.400;2023-11-18T15:14:43;98597.00;;;6.82;85.90
9423;BME280;65863;49.506;10.400;2023-11-18T15:17:27;98607.16;;;6.80;86.32
9423;BME280;65863;49.506;10.400;2023-11-18T15:20:12;98585.38;;;6.67;85.97